Dixville, New Hampshire
Current Conditions -  °F | °C
As of 11:52 PM on Friday 24 Oct 2014 (Local Time) from KBML Reporting Station
Broken Clouds Broken Clouds  
Wind Chill: 41°   Ceiling: 9500
Heat Index: 41°   Visibility: 10mi
Dew Point: 38°   Wind: 3mph
Humidity: 89%   Direction: NA
Pressure: 29.75"   Gusts: NA
Location:  44.8906°N, 71.3771°W
Report Text: KBML 250352Z AUTO VRB03KT 10SM BKN095 05/03 A2975 RMK AO2 SLP083 T00500033
Loading
Personal Weather Stations






























Interactive Weather Map
Tropical Storm Tracking
New forecast layout! Learn more

10-Day Weather Forecast

Advertisements
Track Severe Weather on mobile